Time;durP1;ratioP1;P1;durP2;ratioP2;P2;SDS_P1;SDS_P2;PMS_P1;PMS_P2;Temp;Humidity;BMP_temperature;BMP_pressure;BME280_temperature;BME280_humidity;BME280_pressure;Samples;Min_cycle;Max_cycle;Signal;HPM_P1;HPM_P2
2022/12/23 00:01:18;;;;;;;16.88;10.63;;;;;;;3.78;100.00;62390.50;5004853;28;20262;-76
2022/12/23 00:03:45;;;;;;;17.63;11.35;;;;;;;3.76;100.00;62385.44;5005544;28;20512;-75
2022/12/23 00:06:14;;;;;;;17.48;10.27;;;;;;;3.74;100.00;62388.94;4999957;28;20257;-76
2022/12/23 00:08:43;;;;;;;18.33;9.85;;;;;;;3.75;100.00;62389.94;5009362;28;20258;-76
2022/12/23 00:11:13;;;;;;;22.50;13.43;;;;;;;3.75;100.00;62384.41;5005749;28;20243;-75
2022/12/23 00:16:25;;;;;;;21.50;13.82;;;;;;;3.71;100.00;62380.31;5005330;28;20234;-75
2022/12/23 00:18:53;;;;;;;23.38;14.32;;;;;;;3.68;100.00;62377.19;5005395;28;20207;-76
2022/12/23 00:21:20;;;;;;;20.92;15.20;;;;;;;3.64;100.00;62373.63;5007244;28;20598;-76
2022/12/23 00:23:50;;;;;;;23.13;15.57;;;;;;;3.63;100.00;62375.09;5009677;28;20242;-75
2022/12/23 00:26:20;;;;;;;23.45;15.30;;;;;;;3.68;100.00;62377.19;5005238;28;20223;-76
2022/12/23 00:28:47;;;;;;;28.88;16.90;;;;;;;3.66;100.00;62372.63;5004896;28;20561;-75
2022/12/23 00:31:17;;;;;;;27.98;17.05;;;;;;;3.57;100.00;62368.41;5005820;28;20219;-76
2022/12/23 00:33:46;;;;;;;28.95;17.15;;;;;;;3.51;100.00;62363.28;5001639;28;20203;-77
2022/12/23 00:36:15;;;;;;;25.60;16.10;;;;;;;3.53;100.00;62359.78;5004915;28;20473;-74
2022/12/23 00:44:12;;;;;;;22.73;13.88;;;;;;;3.36;100.00;62342.31;5005582;28;20198;-77
2022/12/23 00:46:39;;;;;;;28.40;17.60;;;;;;;3.36;100.00;62347.34;4988882;28;20408;-75
2022/12/23 00:51:51;;;;;;;24.60;15.27;;;;;;;3.30;100.00;62339.16;5006332;28;20233;-73
2022/12/23 00:54:18;;;;;;;31.42;17.27;;;;;;;3.32;100.00;62345.72;5008241;28;20191;-75
2022/12/23 00:56:47;;;;;;;24.98;15.90;;;;;;;3.22;100.00;62333.47;5008134;28;20241;-75
2022/12/23 00:59:15;;;;;;;31.40;17.65;;;;;;;3.25;100.00;62329.00;5004951;28;20224;-75
2022/12/23 01:07:11;;;;;;;31.88;17.75;;;;;;;3.31;100.00;62342.69;5009968;28;20241;-76
2022/12/23 01:09:38;;;;;;;27.52;17.40;;;;;;;3.30;100.00;62346.19;5005718;28;20210;-76
2022/12/23 01:12:07;;;;;;;28.75;17.38;;;;;;;3.33;100.00;62349.78;5007341;28;20242;-76
2022/12/23 01:14:34;;;;;;;29.52;17.85;;;;;;;3.39;100.00;62348.41;5008096;28;20207;-75
2022/12/23 01:17:01;;;;;;;21.42;13.23;;;;;;;3.41;100.00;62352.47;5006076;28;20543;-76
2022/12/23 01:19:29;;;;;;;21.95;13.73;;;;;;;3.41;100.00;62350.47;5007245;28;20279;-75
2022/12/23 01:21:56;;;;;;;19.67;12.95;;;;;;;3.38;100.00;62344.88;5008675;28;20231;-75
2022/12/23 01:24:23;;;;;;;26.08;15.57;;;;;;;3.40;100.00;62349.44;5007742;28;20380;-77
2022/12/23 01:26:50;;;;;;;24.55;15.02;;;;;;;3.43;100.00;62352.53;5005315;28;20405;-75
2022/12/23 01:29:18;;;;;;;25.95;16.25;;;;;;;3.43;100.00;62355.03;5007713;28;20396;-74
2022/12/23 01:31:46;;;;;;;36.20;17.40;;;;;;;3.47;100.00;62354.13;5007126;28;20215;-76
2022/12/23 01:34:13;;;;;;;26.05;15.77;;;;;;;3.60;98.75;62374.53;5007510;28;20334;-77
2022/12/23 01:36:40;;;;;;;24.40;15.85;;;;;;;3.69;97.71;62380.75;5006768;28;20227;-75
2022/12/23 01:39:07;;;;;;;23.55;14.75;;;;;;;3.72;98.24;62381.84;5007456;28;20415;-75
2022/12/23 01:45:01;;;;;;;20.50;13.90;;;;;;;3.82;98.81;62392.13;4991176;28;20199;-75
2022/12/23 01:47:38;;;;;;;22.23;12.13;;;;;;;3.58;100.00;62367.44;4998545;28;20290;-75
2022/12/23 01:50:09;;;;;;;17.45;10.60;;;;;;;3.54;100.00;62361.31;5007976;28;20378;-75
2022/12/23 01:52:48;;;;;;;22.42;12.27;;;;;;;3.57;100.00;62365.91;5008532;28;20192;-77
2022/12/23 01:55:18;;;;;;;19.00;11.90;;;;;;;3.65;100.00;62371.59;5008469;28;20204;-76
2022/12/23 01:57:46;;;;;;;18.35;11.48;;;;;;;3.72;100.00;62378.81;5006380;28;20254;-76
2022/12/23 02:05:45;;;;;;;24.92;12.30;;;;;;;3.92;100.00;62402.41;5008299;28;20226;-76
2022/12/23 02:11:26;;;;;;;21.13;11.68;;;;;;;4.02;99.79;62409.66;5007122;28;20229;-76
2022/12/23 02:16:55;;;;;;;15.48;10.98;;;;;;;4.04;98.71;62414.75;4994468;28;20219;-75
2022/12/23 02:19:47;;;;;;;19.73;9.75;;;;;;;4.11;99.32;62423.94;4991301;28;20508;-76
2022/12/23 02:22:37;;;;;;;17.67;10.25;;;;;;;4.18;98.38;62424.13;5003728;28;20405;-76
2022/12/23 02:25:30;;;;;;;17.70;10.30;;;;;;;4.22;97.16;62433.28;5006624;28;20203;-77
2022/12/23 02:28:15;;;;;;;14.27;10.90;;;;;;;4.21;97.55;62434.75;5005688;28;20202;-76
2022/12/23 02:30:48;;;;;;;19.48;11.43;;;;;;;4.26;98.02;62434.34;5003904;28;20286;-75
2022/12/23 02:33:47;;;;;;;19.27;11.23;;;;;;;4.34;97.51;62443.09;5006455;28;20199;-76
2022/12/23 02:36:29;;;;;;;17.30;9.75;;;;;;;4.31;97.85;62442.03;5007637;28;20226;-76
2022/12/23 02:39:02;;;;;;;15.27;9.73;;;;;;;4.34;98.30;62447.63;5004175;28;20203;-74
2022/12/23 02:41:34;;;;;;;20.77;11.60;;;;;;;4.10;98.77;62423.44;5005962;28;20425;-76
2022/12/23 02:44:09;;;;;;;16.30;11.25;;;;;;;4.20;98.72;62431.22;5004470;28;20196;-75
2022/12/23 02:46:46;;;;;;;18.35;11.63;;;;;;;4.32;98.35;62443.56;5006061;28;20245;-76
2022/12/23 02:49:16;;;;;;;21.20;13.07;;;;;;;4.29;98.81;62443.00;5008861;28;20245;-76
2022/12/23 02:51:49;;;;;;;21.20;13.48;;;;;;;4.37;97.58;62450.72;5005074;28;20227;-76
2022/12/23 02:54:23;;;;;;;28.85;13.05;;;;;;;4.47;96.20;62461.50;5005806;28;20203;-76
2022/12/23 02:56:52;;;;;;;24.58;13.98;;;;;;;4.52;95.96;62461.13;5004874;28;20467;-76
2022/12/23 02:59:22;;;;;;;24.33;13.27;;;;;;;4.58;93.68;62469.81;5007643;28;20200;-76
2022/12/23 03:01:53;;;;;;;23.10;12.68;;;;;;;4.62;91.99;62476.44;5009289;28;20243;-76
2022/12/23 03:04:19;;;;;;;21.98;13.65;;;;;;;4.72;91.70;62484.75;4997381;28;20200;-75
2022/12/23 03:06:51;;;;;;;21.40;12.15;;;;;;;4.77;91.56;62488.84;5003922;28;20321;-76
2022/12/23 03:09:31;;;;;;;24.92;13.88;;;;;;;4.76;91.39;62490.88;5005498;28;20195;-75
2022/12/23 03:12:07;;;;;;;25.00;14.82;;;;;;;4.35;96.01;62444.13;5005449;28;20274;-76
2022/12/23 03:14:50;;;;;;;27.70;15.93;;;;;;;4.19;97.25;62432.19;5006901;28;20195;-75
2022/12/23 03:17:33;;;;;;;28.45;16.88;;;;;;;3.64;99.17;62376.13;5006158;28;20234;-75
2022/12/23 03:20:09;;;;;;;36.45;19.00;;;;;;;3.68;100.00;62377.19;5005654;28;20222;-75
2022/12/23 03:22:41;;;;;;;44.95;26.13;;;;;;;3.52;99.47;62361.25;5005339;28;20238;-75
2022/12/23 03:25:13;;;;;;;43.47;23.83;;;;;;;3.44;99.66;62355.56;5017460;28;20241;-76
2022/12/23 03:27:45;;;;;;;46.85;24.05;;;;;;;3.21;100.00;62332.41;5006523;28;20203;-75
2022/12/23 03:30:15;;;;;;;49.50;26.50;;;;;;;3.13;100.00;62319.16;5007915;28;20274;-75
2022/12/23 03:32:47;;;;;;;40.13;23.65;;;;;;;3.03;100.00;62311.41;5003520;28;20411;-75
2022/12/23 03:35:18;;;;;;;47.85;24.75;;;;;;;3.19;100.00;62330.38;5004728;28;20219;-77
2022/12/23 03:37:49;;;;;;;46.83;25.52;;;;;;;3.18;100.00;62326.81;5005018;28;20255;-75
2022/12/23 03:40:20;;;;;;;42.20;24.30;;;;;;;3.15;100.00;62323.75;5005887;28;20535;-76
2022/12/23 03:42:51;;;;;;;49.15;23.33;;;;;;;3.06;100.00;62314.50;4996085;28;20212;-75
2022/12/23 03:45:23;;;;;;;47.25;25.52;;;;;;;3.10;100.00;62318.63;5002665;28;20203;-75
2022/12/23 03:47:55;;;;;;;40.95;25.23;;;;;;;2.68;100.00;62277.44;5006116;28;20485;-75
2022/12/23 03:50:24;;;;;;;51.85;28.33;;;;;;;2.54;100.00;62268.09;5004103;28;20200;-75
2022/12/23 03:52:56;;;;;;;52.15;29.73;;;;;;;2.21;100.00;62227.16;5002497;28;20200;-76
2022/12/23 03:55:29;;;;;;;59.78;31.13;;;;;;;2.41;100.00;62247.72;5005721;28;20207;-77
2022/12/23 03:58:03;;;;;;;61.70;31.70;;;;;;;2.31;100.00;62235.44;5003711;28;20456;-76
2022/12/23 04:00:35;;;;;;;59.67;31.95;;;;;;;2.46;100.00;62247.81;5006658;28;20211;-77
2022/12/23 04:03:10;;;;;;;59.15;31.17;;;;;;;2.43;100.00;62251.75;5005210;28;20584;-77
2022/12/23 04:05:40;;;;;;;66.15;33.08;;;;;;;2.50;100.00;62258.94;5003977;28;20280;-76
2022/12/23 04:08:12;;;;;;;64.13;30.83;;;;;;;2.62;100.00;62266.78;5005218;28;20229;-77
2022/12/23 04:10:40;;;;;;;55.65;32.00;;;;;;;2.65;100.00;62272.38;5004313;28;20254;-77
2022/12/23 04:13:08;;;;;;;56.95;31.95;;;;;;;2.64;100.00;62270.81;5010440;28;20226;-77
2022/12/23 04:15:39;;;;;;;59.47;34.35;;;;;;;2.78;100.00;62287.72;5005560;28;20219;-76
2022/12/23 04:18:10;;;;;;;60.63;31.45;;;;;;;2.80;100.00;62287.78;5003406;28;20431;-76
2022/12/23 04:20:36;;;;;;;59.03;31.20;;;;;;;2.74;100.00;62279.09;5003619;28;20215;-76
2022/12/23 04:23:03;;;;;;;43.65;25.80;;;;;;;2.49;100.00;62255.91;5004206;28;20269;-77
2022/12/23 04:25:30;;;;;;;48.70;24.17;;;;;;;2.58;100.00;62267.69;5003837;28;20218;-77
2022/12/23 04:27:57;;;;;;;44.15;23.85;;;;;;;2.71;100.00;62278.53;5005144;28;20262;-75
2022/12/23 04:30:25;;;;;;;30.58;19.95;;;;;;;2.83;100.00;62292.88;5005555;28;20199;-76
2022/12/23 04:32:51;;;;;;;80.70;35.53;;;;;;;2.96;100.00;62306.22;4996643;28;20243;-77
2022/12/23 04:35:20;;;;;;;49.38;25.38;;;;;;;3.05;100.00;62312.94;5010757;28;20203;-76
2022/12/23 04:37:47;;;;;;;47.90;25.02;;;;;;;3.18;100.00;62331.34;5003848;28;20251;-76
2022/12/23 04:40:14;;;;;;;28.48;17.35;;;;;;;3.31;100.00;62340.19;5004334;28;20199;-75
2022/12/23 04:42:41;;;;;;;28.73;16.52;;;;;;;3.44;100.00;62356.06;4999646;28;20591;-76
2022/12/23 04:45:09;;;;;;;34.95;14.98;;;;;;;3.30;100.00;62341.16;5008450;28;20201;-76
2022/12/23 04:47:36;;;;;;;22.73;14.73;;;;;;;3.23;100.00;62333.97;5004753;28;20436;-76
2022/12/23 04:50:03;;;;;;;22.17;12.85;;;;;;;3.25;100.00;62336.03;5003171;28;20199;-76
2022/12/23 04:52:31;;;;;;;22.50;12.45;;;;;;;3.32;100.00;62343.75;5001415;28;20253;-74
2022/12/23 04:54:58;;;;;;;17.95;10.95;;;;;;;3.36;100.00;62342.31;5004439;28;20253;-76
2022/12/23 04:57:25;;;;;;;18.83;12.00;;;;;;;3.46;100.00;62355.63;5006099;28;20230;-75
2022/12/23 04:59:52;;;;;;;21.60;12.57;;;;;;;3.50;100.00;62359.22;5006546;28;20200;-75
2022/12/23 05:02:19;;;;;;;20.05;12.10;;;;;;;3.59;100.00;62370.97;5005147;28;20234;-75
2022/12/23 05:04:46;;;;;;;18.40;10.82;;;;;;;3.67;100.00;62378.69;5004021;28;20195;-76
2022/12/23 05:07:13;;;;;;;19.65;12.02;;;;;;;3.55;100.00;62364.84;5004416;28;20218;-76
2022/12/23 05:09:42;;;;;;;25.40;15.20;;;;;;;3.52;100.00;62358.75;5002016;28;20204;-76
2022/12/23 05:12:09;;;;;;;27.98;14.80;;;;;;;3.66;100.00;62377.69;5005362;28;20278;-75
2022/12/23 05:14:36;;;;;;;27.35;16.08;;;;;;;3.73;100.00;62379.84;5006125;28;20207;-76
2022/12/23 05:17:04;;;;;;;26.25;15.82;;;;;;;3.77;100.00;62389.50;5020453;28;20273;-75
2022/12/23 05:19:31;;;;;;;24.63;15.57;;;;;;;3.91;100.00;62400.88;4990370;28;20196;-76
2022/12/23 05:21:58;;;;;;;26.92;15.85;;;;;;;3.97;100.00;62407.03;5004548;28;20238;-76
2022/12/23 05:24:25;;;;;;;26.13;16.88;;;;;;;4.04;100.00;62414.25;4998562;28;20500;-76
2022/12/23 05:26:53;;;;;;;24.83;16.13;;;;;;;4.03;100.00;62413.72;5000680;28;20270;-74
2022/12/23 05:29:20;;;;;;;21.90;15.07;;;;;;;4.04;100.00;62419.78;5005650;28;20225;-77
2022/12/23 05:31:47;;;;;;;28.95;17.27;;;;;;;4.07;99.96;62417.81;5006723;28;20403;-77
2022/12/23 05:34:14;;;;;;;27.13;17.23;;;;;;;4.09;98.41;62417.38;4991836;28;20195;-76
2022/12/23 05:36:41;;;;;;;36.97;18.92;;;;;;;4.11;98.58;62419.44;5006418;28;20251;-75
2022/12/23 05:39:09;;;;;;;34.13;18.80;;;;;;;4.17;98.61;62428.13;5009561;28;20209;-75
2022/12/23 05:41:36;;;;;;;24.60;16.25;;;;;;;4.15;98.99;62423.56;5021695;28;20230;-74
2022/12/23 05:44:04;;;;;;;29.52;16.75;;;;;;;4.35;99.35;62446.66;5003267;28;20223;-75
2022/12/23 05:46:31;;;;;;;28.75;16.63;;;;;;;4.26;99.94;62436.88;5002453;28;20414;-75
2022/12/23 05:48:58;;;;;;;24.90;16.58;;;;;;;4.39;100.00;62453.28;4988401;28;20219;-76
2022/12/23 05:51:25;;;;;;;34.05;19.60;;;;;;;4.20;100.00;62428.16;4988537;28;20357;-77
2022/12/23 05:53:52;;;;;;;34.55;20.48;;;;;;;4.23;100.00;62433.78;4992033;28;20287;-76
2022/12/23 05:56:19;;;;;;;22.27;15.20;;;;;;;4.29;100.00;62439.97;5008525;28;20278;-76
2022/12/23 05:58:46;;;;;;;26.00;17.33;;;;;;;4.30;100.00;62443.50;5006516;28;20231;-76
2022/12/23 06:01:14;;;;;;;26.10;16.45;;;;;;;4.27;100.00;62442.94;5007799;28;20220;-76
2022/12/23 06:03:41;;;;;;;21.08;14.25;;;;;;;4.27;100.00;62435.38;5005845;28;20238;-76
2022/12/23 06:06:08;;;;;;;27.25;18.58;;;;;;;3.91;100.00;62401.38;4989929;28;20228;-76
2022/12/23 06:08:36;;;;;;;36.05;19.65;;;;;;;4.00;100.00;62410.66;4987876;28;20214;-76
2022/12/23 06:11:05;;;;;;;36.67;19.10;;;;;;;4.08;100.00;62415.81;4991987;28;20230;-76
2022/12/23 06:13:32;;;;;;;30.80;18.77;;;;;;;4.18;100.00;62431.16;5001694;28;20303;-77
2022/12/23 06:15:59;;;;;;;32.60;19.48;;;;;;;4.22;100.00;62433.28;5000197;28;20222;-77
2022/12/23 06:18:27;;;;;;;34.40;19.98;;;;;;;4.12;100.00;62428.03;5007561;28;20259;-78
2022/12/23 06:20:54;;;;;;;33.70;18.40;;;;;;;4.27;100.00;62435.91;5007592;28;20223;-76
2022/12/23 06:23:21;;;;;;;34.75;18.35;;;;;;;4.34;100.00;62445.63;5007307;28;20295;-76
2022/12/23 06:25:48;;;;;;;26.42;15.27;;;;;;;4.42;100.00;62453.84;5008167;28;20220;-75
2022/12/23 06:28:16;;;;;;;22.48;15.02;;;;;;;4.51;100.00;62465.63;5006947;28;20203;-77
2022/12/23 06:30:43;;;;;;;25.08;14.32;;;;;;;4.58;100.00;62467.81;5006141;28;20226;-76
2022/12/23 06:33:10;;;;;;;30.15;14.50;;;;;;;4.58;100.00;62469.81;4994399;28;20226;-76
2022/12/23 06:35:38;;;;;;;20.50;13.40;;;;;;;4.53;100.00;62464.66;4988249;28;20292;-77
2022/12/23 06:38:05;;;;;;;25.40;16.00;;;;;;;4.57;100.00;62466.25;5006593;28;20195;-77
2022/12/23 06:40:31;;;;;;;24.10;15.85;;;;;;;4.70;100.00;62479.63;5002615;28;20232;-76
2022/12/23 06:42:58;;;;;;;26.42;14.65;;;;;;;4.71;100.00;62486.22;4986469;28;20228;-76
2022/12/23 06:45:25;;;;;;;28.88;14.45;;;;;;;4.78;100.00;62489.88;4987281;28;20247;-76
2022/12/23 06:47:52;;;;;;;24.15;14.55;;;;;;;4.84;100.00;62496.56;5001081;28;20520;-76
2022/12/23 06:50:22;;;;;;;23.42;13.40;;;;;;;4.87;100.00;62501.69;4997389;28;20200;-77
2022/12/23 06:52:51;;;;;;;24.42;13.75;;;;;;;4.89;100.00;62501.19;4987297;28;20200;-76
2022/12/23 06:55:18;;;;;;;22.50;14.05;;;;;;;4.78;100.00;62489.88;4991983;28;20523;-77
2022/12/23 06:57:46;;;;;;;24.08;15.30;;;;;;;4.69;100.00;62486.19;5005476;28;20218;-79
2022/12/23 07:00:14;;;;;;;25.25;16.00;;;;;;;4.69;100.00;62481.13;4993042;28;20258;-76
2022/12/23 07:02:41;;;;;;;34.17;17.88;;;;;;;4.67;100.00;62479.06;5008639;28;20257;-76
2022/12/23 07:05:12;;;;;;;32.60;19.10;;;;;;;4.68;100.00;62478.09;5007398;28;20226;-77
2022/12/23 07:07:39;;;;;;;42.95;25.65;;;;;;;4.22;100.00;62435.78;5003465;28;20238;-76
2022/12/23 07:10:09;;;;;;;38.92;23.70;;;;;;;4.00;100.00;62412.66;5004100;28;20484;-77
2022/12/23 07:12:35;;;;;;;37.15;22.15;;;;;;;3.96;100.00;62408.53;5007322;28;20215;-78
2022/12/23 07:15:03;;;;;;;40.05;23.73;;;;;;;4.20;100.00;62430.69;5004528;28;20214;-77
2022/12/23 07:17:31;;;;;;;39.85;25.20;;;;;;;4.12;100.00;62423.00;4987856;28;20220;-77
2022/12/23 07:19:58;;;;;;;47.42;26.90;;;;;;;4.15;100.00;62428.59;4988806;28;20227;-77
2022/12/23 07:22:25;;;;;;;36.20;23.65;;;;;;;4.45;100.00;62456.44;4988261;28;20235;-77
2022/12/23 07:24:52;;;;;;;40.40;24.38;;;;;;;4.51;100.00;62465.63;4996280;28;20433;-77
2022/12/23 07:27:20;;;;;;;41.47;24.42;;;;;;;4.47;100.00;62461.00;5007419;28;20227;-77
2022/12/23 07:29:47;;;;;;;46.13;25.13;;;;;;;4.59;100.00;62473.88;5007391;28;20207;-75
2022/12/23 07:32:14;;;;;;;44.15;26.35;;;;;;;4.54;100.00;62463.69;5006607;28;20448;-76
2022/12/23 07:34:41;;;;;;;39.63;26.50;;;;;;;4.62;100.00;62476.44;5005468;28;20211;-77
2022/12/23 07:37:08;;;;;;;52.15;28.50;;;;;;;4.63;100.00;62475.47;4989423;28;20660;-76
2022/12/23 07:39:35;;;;;;;58.90;30.50;;;;;;;4.54;100.00;62468.19;4986219;28;20295;-76
2022/12/23 07:42:04;;;;;;;48.63;30.35;;;;;;;4.36;100.00;62445.16;4995400;28;20279;-76
2022/12/23 07:44:34;;;;;;;66.47;36.55;;;;;;;3.93;100.00;62405.44;5002425;28;20191;-76
2022/12/23 07:47:02;;;;;;;68.45;35.35;;;;;;;4.05;100.00;62415.78;5002772;28;20215;-76
2022/12/23 07:49:29;;;;;;;55.38;32.63;;;;;;;3.95;100.00;62410.53;5005365;28;20501;-78
2022/12/23 07:51:56;;;;;;;54.25;28.73;;;;;;;3.98;100.00;62413.63;5001282;28;20283;-77
2022/12/23 07:54:23;;;;;;;47.88;29.30;;;;;;;4.09;100.00;62422.41;5003643;28;20192;-77
2022/12/23 07:56:49;;;;;;;50.83;29.67;;;;;;;4.23;100.00;62436.81;5005571;28;20290;-77
2022/12/23 07:59:17;;;;;;;54.60;28.98;;;;;;;4.39;100.00;62447.72;5008681;28;20203;-77
2022/12/23 08:01:45;;;;;;;45.80;28.23;;;;;;;4.53;100.00;62467.69;5005578;28;20243;-77
2022/12/23 08:04:13;;;;;;;44.92;25.92;;;;;;;4.58;100.00;62469.81;5007544;28;20227;-78
2022/12/23 08:06:40;;;;;;;37.97;23.67;;;;;;;4.65;100.00;62482.56;5007255;28;20225;-76
2022/12/23 08:09:08;;;;;;;30.92;19.77;;;;;;;4.81;100.00;62490.97;5007758;28;20493;-77
2022/12/23 08:11:35;;;;;;;33.97;21.15;;;;;;;4.88;100.00;62500.16;5008206;28;20277;-77
2022/12/23 08:14:01;;;;;;;33.08;17.65;;;;;;;4.93;100.00;62507.84;5006129;28;20203;-77
2022/12/23 08:16:28;;;;;;;24.17;15.98;;;;;;;4.99;99.93;62508.97;5003601;28;20269;-77
2022/12/23 08:18:57;;;;;;;28.00;16.90;;;;;;;5.11;98.05;62526.88;5004453;28;20211;-77
2022/12/23 08:21:23;;;;;;;23.02;14.48;;;;;;;5.21;96.98;62534.16;5000333;28;20226;-77
2022/12/23 08:23:52;;;;;;;27.02;16.27;;;;;;;5.36;96.67;62547.06;5004234;28;20234;-77
2022/12/23 08:26:21;;;;;;;34.38;19.50;;;;;;;5.41;96.15;62557.78;5004542;28;20258;-77
2022/12/23 08:28:49;;;;;;;35.33;20.83;;;;;;;5.51;97.21;62565.56;5006987;28;20387;-76
2022/12/23 08:31:18;;;;;;;37.25;22.13;;;;;;;5.68;97.78;62585.59;5006235;28;20233;-77
2022/12/23 08:33:46;;;;;;;32.83;21.13;;;;;;;5.78;97.84;62590.84;5003483;28;20377;-77
2022/12/23 08:36:19;;;;;;;31.75;18.98;;;;;;;5.86;95.80;62606.19;5004162;28;20220;-77
2022/12/23 08:38:46;;;;;;;34.33;20.40;;;;;;;6.01;94.70;62619.13;5003932;28;20207;-78
2022/12/23 08:41:16;;;;;;;31.02;21.20;;;;;;;6.08;93.69;62623.81;5005335;28;20233;-78
2022/12/23 08:43:43;;;;;;;29.20;19.38;;;;;;;6.06;92.68;62626.81;5004955;28;20231;-76
2022/12/23 08:46:11;;;;;;;29.83;18.55;;;;;;;6.18;92.54;62633.63;5005167;28;20219;-78
2022/12/23 08:48:38;;;;;;;33.28;18.88;;;;;;;6.26;91.88;62644.91;5003318;28;20211;-76
2022/12/23 08:51:08;;;;;;;30.08;18.90;;;;;;;6.27;90.66;62643.41;5003384;28;20218;-77
2022/12/23 08:53:38;;;;;;;30.08;19.05;;;;;;;6.33;90.06;62647.06;5005472;28;20255;-77
2022/12/23 08:56:07;;;;;;;26.60;17.25;;;;;;;6.13;89.47;62626.44;5014117;28;20229;-76
2022/12/23 08:58:37;;;;;;;28.92;17.88;;;;;;;6.25;89.41;62640.81;5025304;28;20198;-75
2022/12/23 09:01:05;;;;;;;27.13;16.20;;;;;;;6.33;86.00;62649.59;5009854;28;20388;-77
2022/12/23 09:03:31;;;;;;;28.90;16.10;;;;;;;6.40;85.53;62661.84;4988590;28;20271;-77
2022/12/23 09:06:03;;;;;;;21.92;14.15;;;;;;;6.67;81.60;62681.59;4986227;28;20266;-75
2022/12/23 09:08:30;;;;;;;31.55;16.67;;;;;;;6.66;80.34;62683.59;4995498;28;20199;-77
2022/12/23 09:10:59;;;;;;;26.10;16.30;;;;;;;6.74;79.63;62688.81;5003928;28;20242;-76
2022/12/23 09:13:26;;;;;;;23.05;15.40;;;;;;;6.85;78.43;62703.19;4998569;28;20220;-76
2022/12/23 09:15:53;;;;;;;29.00;16.33;;;;;;;7.07;77.74;62725.38;5008747;28;20227;-77
2022/12/23 09:18:20;;;;;;;21.75;14.88;;;;;;;7.24;77.18;62745.47;5008875;28;20505;-76
2022/12/23 09:20:47;;;;;;;23.33;15.23;;;;;;;7.26;74.93;62744.47;4989249;28;20278;-77
2022/12/23 09:23:14;;;;;;;24.27;15.52;;;;;;;7.24;73.81;62744.94;4989670;28;20274;-76
2022/12/23 09:25:41;;;;;;;23.30;13.77;;;;;;;7.42;74.38;62763.53;5003669;28;20524;-77
2022/12/23 09:28:09;;;;;;;28.52;16.17;;;;;;;7.71;73.02;62793.47;5005662;28;20571;-76
2022/12/23 09:30:36;;;;;;;23.95;15.68;;;;;;;7.72;71.36;62792.47;5005644;28;20574;-76
2022/12/23 09:33:04;;;;;;;26.65;16.10;;;;;;;7.60;71.65;62779.56;4999334;28;20485;-76
2022/12/23 09:35:32;;;;;;;27.80;16.65;;;;;;;7.81;72.62;62803.78;5007828;28;20440;-76
2022/12/23 09:37:59;;;;;;;33.42;18.50;;;;;;;7.99;70.99;62819.81;5001663;28;20200;-76
2022/12/23 09:40:30;;;;;;;29.77;19.10;;;;;;;8.15;70.37;62838.88;4989794;28;20271;-77
2022/12/23 09:43:07;;;;;;;29.85;18.00;;;;;;;8.34;67.39;62855.47;4989648;28;20211;-76
2022/12/23 09:45:52;;;;;;;35.38;21.35;;;;;;;8.59;68.39;62881.31;4990684;28;20433;-77
2022/12/23 09:48:24;;;;;;;36.67;19.70;;;;;;;8.82;66.85;62912.66;4990265;28;20227;-76
2022/12/23 09:50:51;;;;;;;36.28;20.77;;;;;;;8.90;64.63;62910.78;4988408;28;20220;-78
2022/12/23 09:53:22;;;;;;;35.88;22.52;;;;;;;9.12;63.57;62936.06;5000852;28;20211;-77
2022/12/23 09:55:54;;;;;;;41.58;23.55;;;;;;;9.26;64.16;62948.53;5007590;28;20237;-76
2022/12/23 09:58:29;;;;;;;44.80;24.77;;;;;;;9.44;63.44;62971.69;5007771;28;20242;-76
2022/12/23 10:01:14;;;;;;;41.63;24.55;;;;;;;9.62;63.56;62985.22;5008054;28;20225;-76
2022/12/23 10:04:09;;;;;;;48.35;25.70;;;;;;;9.73;63.50;62996.59;4988650;28;20212;-76
2022/12/23 10:06:42;;;;;;;44.75;25.23;;;;;;;9.57;66.34;62985.13;4992836;28;20227;-76
2022/12/23 10:09:18;;;;;;;43.83;25.42;;;;;;;9.36;68.27;62963.41;4998221;28;20210;-77
2022/12/23 10:11:48;;;;;;;39.58;24.98;;;;;;;9.68;66.96;62996.50;5011906;28;20229;-78
2022/12/23 10:14:20;;;;;;;43.95;24.85;;;;;;;9.85;66.78;63011.03;5007037;28;20271;-77
2022/12/23 10:16:53;;;;;;;43.15;25.15;;;;;;;9.61;69.28;62984.19;5004420;28;20227;-76
2022/12/23 10:19:26;;;;;;;44.47;26.92;;;;;;;9.61;68.46;62986.72;5010031;28;20378;-77
2022/12/23 10:21:58;;;;;;;51.53;30.27;;;;;;;9.66;67.80;62993.94;5011053;28;20229;-77
2022/12/23 10:24:28;;;;;;;57.70;30.50;;;;;;;9.72;67.99;63002.66;5008235;28;20474;-77
2022/12/23 10:26:56;;;;;;;55.63;30.98;;;;;;;9.73;68.63;63001.16;5022149;28;20409;-76
2022/12/23 10:29:24;;;;;;;51.10;31.17;;;;;;;9.64;68.68;62992.38;4994068;28;20212;-77
2022/12/23 10:32:05;;;;;;;59.08;33.30;;;;;;;9.56;69.00;62983.59;4986913;28;20224;-77
2022/12/23 10:34:43;;;;;;;55.50;32.30;;;;;;;9.56;68.83;62981.56;4989677;28;20280;-76
2022/12/23 10:37:17;;;;;;;60.10;33.05;;;;;;;9.71;68.17;63002.16;4989435;28;20247;-77
2022/12/23 10:39:53;;;;;;;54.17;32.50;;;;;;;9.97;67.48;63026.50;4989579;28;20235;-77
2022/12/23 10:42:27;;;;;;;58.08;33.92;;;;;;;10.22;67.00;63049.31;4992675;28;20242;-76
2022/12/23 10:45:16;;;;;;;56.33;32.35;;;;;;;10.43;65.72;63071.56;4987531;28;20235;-77
2022/12/23 10:47:55;;;;;;;49.88;30.88;;;;;;;10.36;66.42;63066.34;4992282;28;20211;-77
2022/12/23 10:50:44;;;;;;;53.15;27.88;;;;;;;10.76;64.85;63102.66;5007017;28;20205;-75
2022/12/23 10:53:16;;;;;;;50.15;30.23;;;;;;;10.72;63.54;63098.53;5007703;28;20420;-76
2022/12/23 10:55:45;;;;;;;51.60;30.38;;;;;;;10.54;63.87;63082.44;5003864;28;20416;-76
2022/12/23 10:58:17;;;;;;;56.45;32.38;;;;;;;10.15;65.18;63047.69;4994700;28;20568;-76
2022/12/23 11:00:48;;;;;;;46.08;29.75;;;;;;;10.07;66.21;63036.84;5002093;28;20414;-77
2022/12/23 11:03:22;;;;;;;47.67;28.48;;;;;;;9.88;65.57;63017.19;5006246;28;20195;-76
2022/12/23 11:05:51;;;;;;;51.95;30.20;;;;;;;9.93;66.75;63022.38;5010463;28;20516;-75
2022/12/23 11:08:18;;;;;;;49.13;28.83;;;;;;;10.02;66.82;63028.63;5005693;28;20203;-78
2022/12/23 11:10:47;;;;;;;43.38;26.65;;;;;;;10.07;65.44;63039.41;5007783;28;20219;-77
2022/12/23 11:13:24;;;;;;;49.08;30.15;;;;;;;10.03;68.04;63025.09;5005664;28;20199;-77
2022/12/23 11:15:52;;;;;;;46.97;29.35;;;;;;;10.33;65.79;63063.25;5004417;28;20222;-76
2022/12/23 11:18:21;;;;;;;51.70;32.25;;;;;;;10.20;66.28;63050.31;5005705;28;20208;-76
2022/12/23 11:21:03;;;;;;;52.10;31.58;;;;;;;10.17;66.91;63047.22;5007038;28;20223;-76
2022/12/23 11:23:32;;;;;;;55.15;32.08;;;;;;;10.22;66.63;63051.88;5007663;28;20266;-76
2022/12/23 11:26:02;;;;;;;48.08;31.02;;;;;;;9.99;67.88;63028.06;5005545;28;20253;-76
2022/12/23 11:28:30;;;;;;;51.08;30.52;;;;;;;10.01;67.09;63027.59;5005483;28;20412;-75
2022/12/23 11:31:04;;;;;;;52.15;31.67;;;;;;;10.13;65.76;63045.13;5000772;28;20239;-76
2022/12/23 11:33:35;;;;;;;49.70;31.58;;;;;;;10.23;64.49;63052.91;5004586;28;20203;-76
2022/12/23 11:36:06;;;;;;;51.65;31.20;;;;;;;10.22;64.82;63049.84;5007504;28;20219;-75
2022/12/23 11:38:35;;;;;;;66.85;35.65;;;;;;;10.23;64.69;63052.91;5005264;28;20200;-77
2022/12/23 11:41:03;;;;;;;60.25;34.95;;;;;;;10.16;64.97;63046.16;4986481;28;20267;-76
2022/12/23 11:43:32;;;;;;;55.13;36.38;;;;;;;10.00;66.30;63029.63;4994928;28;20231;-76
2022/12/23 11:46:18;;;;;;;76.15;38.67;;;;;;;9.52;68.06;62982.00;5005120;28;20563;-76
2022/12/23 11:48:47;;;;;;;71.50;35.42;;;;;;;9.42;69.90;62966.56;5006572;28;20207;-75
2022/12/23 11:51:25;;;;;;;60.47;36.45;;;;;;;9.10;71.51;62934.53;5003443;28;20422;-75
2022/12/23 11:54:00;;;;;;;64.95;38.88;;;;;;;9.07;70.84;62936.50;5005240;28;20198;-76
2022/12/23 11:56:28;;;;;;;76.20;41.30;;;;;;;8.99;70.39;62920.59;5004956;28;20231;-76
2022/12/23 11:59:03;;;;;;;75.88;43.80;;;;;;;8.84;70.75;62907.66;5003917;28;20223;-76
2022/12/23 12:01:31;;;;;;;75.90;42.17;;;;;;;8.87;71.22;62913.28;5005324;28;20226;-77
2022/12/23 12:04:02;;;;;;;77.93;41.92;;;;;;;8.71;71.45;62894.22;5006648;28;20239;-77